Time;durP1;ratioP1;P1;durP2;ratioP2;P2;SDS_P1;SDS_P2;PMS_P1;PMS_P2;Temp;Humidity;BMP_temperature;BMP_pressure;BME280_temperature;BME280_humidity;BME280_pressure;Samples;Min_cycle;Max_cycle;Signal;HPM_P1;HPM_P2
2022/08/09 00:02:24;;;;;;;;;10.00;10.00;;;;;;;;4971793;28;47198;-63
2022/08/09 00:04:50;;;;;;;;;11.75;10.75;;;;;;;;4972780;28;45326;-63
2022/08/09 00:07:15;;;;;;;;;11.00;11.00;;;;;;;;4973466;28;45398;-63
2022/08/09 00:09:40;;;;;;;;;8.00;8.00;;;;;;;;4973249;28;45525;-63
2022/08/09 00:12:05;;;;;;;;;9.00;9.00;;;;;;;;4957645;28;46100;-63
2022/08/09 00:14:31;;;;;;;;;8.00;8.00;;;;;;;;4953027;28;45345;-63
2022/08/09 00:16:56;;;;;;;;;9.50;9.50;;;;;;;;4953502;28;45427;-63
2022/08/09 00:19:22;;;;;;;;;9.25;9.25;;;;;;;;4953793;28;45676;-63
2022/08/09 00:21:47;;;;;;;;;9.50;9.50;;;;;;;;4953481;28;45958;-63
2022/08/09 00:24:12;;;;;;;;;8.00;8.00;;;;;;;;4953703;28;45493;-63
2022/08/09 00:26:37;;;;;;;;;8.25;8.25;;;;;;;;4953612;28;45610;-63
2022/08/09 00:29:03;;;;;;;;;8.25;8.25;;;;;;;;4953399;28;45426;-63
2022/08/09 00:31:29;;;;;;;;;7.75;7.00;;;;;;;;4953508;28;46038;-63
2022/08/09 00:33:55;;;;;;;;;8.50;8.50;;;;;;;;4956058;28;45435;-63
2022/08/09 00:36:21;;;;;;;;;8.75;8.75;;;;;;;;4955443;28;45357;-63
2022/08/09 00:38:46;;;;;;;;;8.00;8.00;;;;;;;;4956493;28;45506;-63
2022/08/09 00:41:12;;;;;;;;;7.00;7.00;;;;;;;;4962900;28;46815;-63
2022/08/09 00:43:39;;;;;;;;;8.00;7.00;;;;;;;;4974395;28;45443;-63
2022/08/09 00:46:04;;;;;;;;;8.50;8.50;;;;;;;;4976179;28;45512;-63
2022/08/09 00:48:30;;;;;;;;;7.25;7.25;;;;;;;;4976050;28;45457;-63
2022/08/09 00:50:55;;;;;;;;;10.00;8.50;;;;;;;;4973910;28;46107;-63
2022/08/09 00:53:20;;;;;;;;;7.00;7.00;;;;;;;;4975731;28;45469;-63
2022/08/09 00:55:46;;;;;;;;;4.75;4.75;;;;;;;;4975495;28;45430;-63
2022/08/09 00:58:11;;;;;;;;;7.00;7.00;;;;;;;;4975844;28;45327;-63
2022/08/09 01:00:37;;;;;;;;;7.00;7.00;;;;;;;;4975739;28;46281;-63
2022/08/09 01:03:02;;;;;;;;;7.75;7.25;;;;;;;;4975659;28;45382;-64
2022/08/09 01:05:36;;;;;;;;;8.00;6.00;;;;;;;;4974416;28;45489;-63
2022/08/09 01:08:19;;;;;;;;;7.00;7.00;;;;;;;;4956012;28;45375;-63
2022/08/09 01:10:52;;;;;;;;;6.00;6.00;;;;;;;;4957845;28;45780;-63
2022/08/09 01:13:23;;;;;;;;;6.50;6.50;;;;;;;;4954825;28;45440;-63
2022/08/09 01:15:51;;;;;;;;;6.25;6.25;;;;;;;;4956578;28;45569;-63
2022/08/09 01:18:18;;;;;;;;;9.00;8.00;;;;;;;;4954704;28;45486;-63
2022/08/09 01:20:52;;;;;;;;;8.00;8.00;;;;;;;;4973052;28;45530;-63
2022/08/09 01:23:32;;;;;;;;;7.00;7.00;;;;;;;;4970892;28;45478;-63
2022/08/09 01:26:07;;;;;;;;;7.75;7.75;;;;;;;;4975493;28;45630;-63
2022/08/09 01:28:34;;;;;;;;;7.50;7.50;;;;;;;;4975431;28;45626;-63
2022/08/09 01:31:02;;;;;;;;;8.50;6.75;;;;;;;;4975100;28;46618;-63
2022/08/09 01:33:30;;;;;;;;;6.75;6.00;;;;;;;;4975146;28;45527;-63
2022/08/09 01:36:04;;;;;;;;;6.50;6.25;;;;;;;;4975165;28;45426;-63
2022/08/09 01:38:33;;;;;;;;;5.00;5.00;;;;;;;;4959042;28;45359;-63
2022/08/09 01:41:01;;;;;;;;;5.25;5.25;;;;;;;;4955548;28;45521;-63
2022/08/09 01:43:28;;;;;;;;;8.25;8.25;;;;;;;;4955260;28;45502;-63
2022/08/09 01:45:53;;;;;;;;;6.00;5.00;;;;;;;;4955698;28;45454;-63
2022/08/09 01:48:20;;;;;;;;;6.00;6.00;;;;;;;;4955525;28;45346;-63
2022/08/09 01:50:48;;;;;;;;;6.75;6.00;;;;;;;;4955458;28;46330;-63
2022/08/09 01:53:13;;;;;;;;;5.00;5.00;;;;;;;;4955368;28;45478;-63
2022/08/09 01:55:39;;;;;;;;;7.00;7.00;;;;;;;;4955691;28;45427;-63
2022/08/09 01:58:05;;;;;;;;;7.33;7.33;;;;;;;;4959087;28;45495;-63
2022/08/09 02:00:32;;;;;;;;;6.75;6.75;;;;;;;;4955420;28;45468;-63
2022/08/09 02:02:58;;;;;;;;;6.00;6.00;;;;;;;;4956444;28;45388;-63
2022/08/09 02:05:23;;;;;;;;;7.00;7.00;;;;;;;;4955363;28;45414;-64
2022/08/09 02:07:52;;;;;;;;;6.75;6.75;;;;;;;;4955552;28;45554;-64
2022/08/09 02:10:19;;;;;;;;;6.50;6.50;;;;;;;;4955226;28;46363;-64
2022/08/09 02:12:45;;;;;;;;;6.00;6.00;;;;;;;;4966830;28;45500;-64
2022/08/09 02:15:13;;;;;;;;;8.00;8.00;;;;;;;;4974052;28;45450;-64
2022/08/09 02:17:40;;;;;;;;;6.25;6.25;;;;;;;;4974495;28;45598;-63
2022/08/09 02:20:05;;;;;;;;;7.00;7.00;;;;;;;;4974648;28;45450;-64
2022/08/09 02:22:33;;;;;;;;;9.00;6.33;;;;;;;;4974575;28;45443;-64
2022/08/09 02:25:00;;;;;;;;;7.67;7.67;;;;;;;;4969600;28;45495;-64
2022/08/09 02:27:28;;;;;;;;;7.00;7.00;;;;;;;;4955025;28;45513;-64
2022/08/09 02:29:54;;;;;;;;;6.50;6.50;;;;;;;;4955122;28;45375;-64
2022/08/09 02:32:21;;;;;;;;;6.67;6.00;;;;;;;;4955121;28;45415;-64
2022/08/09 02:34:52;;;;;;;;;8.00;6.67;;;;;;;;4955236;28;45387;-64
2022/08/09 02:37:21;;;;;;;;;5.00;5.00;;;;;;;;4961927;28;45470;-64
2022/08/09 02:39:48;;;;;;;;;6.33;6.33;;;;;;;;4974406;28;46128;-64
2022/08/09 02:42:19;;;;;;;;;7.33;7.33;;;;;;;;4974199;28;45399;-65
2022/08/09 02:44:51;;;;;;;;;6.33;6.00;;;;;;;;4974636;28;45355;-64
2022/08/09 02:47:18;;;;;;;;;6.67;6.67;;;;;;;;4974430;28;45440;-64
2022/08/09 02:49:51;;;;;;;;;10.67;8.00;;;;;;;;4974276;28;46091;-64
2022/08/09 02:52:17;;;;;;;;;7.00;7.00;;;;;;;;4965221;28;45432;-64
2022/08/09 02:54:43;;;;;;;;;8.67;8.67;;;;;;;;4954395;28;45336;-64
2022/08/09 02:57:09;;;;;;;;;7.67;7.67;;;;;;;;4954836;28;45442;-63
2022/08/09 02:59:35;;;;;;;;;5.67;5.67;;;;;;;;4953159;28;47082;-64
2022/08/09 03:02:01;;;;;;;;;10.33;7.00;;;;;;;;4955666;28;45391;-63
2022/08/09 03:04:27;;;;;;;;;7.67;7.00;;;;;;;;4959500;28;45376;-63
2022/08/09 03:06:54;;;;;;;;;7.00;7.00;;;;;;;;4974177;28;45659;-65
2022/08/09 03:09:19;;;;;;;;;7.00;7.00;;;;;;;;4973819;28;45569;-63
2022/08/09 03:11:46;;;;;;;;;7.00;7.00;;;;;;;;4973998;28;45497;-63
2022/08/09 03:14:12;;;;;;;;;8.75;8.75;;;;;;;;4974690;28;45521;-63
2022/08/09 03:16:38;;;;;;;;;7.33;7.33;;;;;;;;4973844;28;45582;-63
2022/08/09 03:19:03;;;;;;;;;7.00;7.00;;;;;;;;4972150;28;45435;-63
2022/08/09 03:21:29;;;;;;;;;7.00;7.00;;;;;;;;4973893;28;45429;-63
2022/08/09 03:23:54;;;;;;;;;8.67;7.33;;;;;;;;4974097;28;46132;-63
2022/08/09 03:26:20;;;;;;;;;8.67;8.67;;;;;;;;4973677;28;45422;-63
2022/08/09 03:28:46;;;;;;;;;8.00;8.00;;;;;;;;4973863;28;46133;-63
2022/08/09 03:31:12;;;;;;;;;7.00;7.00;;;;;;;;4973917;28;45396;-63
2022/08/09 03:33:38;;;;;;;;;6.00;6.00;;;;;;;;4970865;28;45362;-63
2022/08/09 03:36:06;;;;;;;;;7.00;6.67;;;;;;;;4954462;28;45313;-63
2022/08/09 03:38:31;;;;;;;;;8.00;7.00;;;;;;;;4954385;28;45919;-63
2022/08/09 03:40:57;;;;;;;;;7.00;7.00;;;;;;;;4954629;28;45533;-63
2022/08/09 03:43:22;;;;;;;;;6.33;6.33;;;;;;;;4954339;28;45390;-63
2022/08/09 03:45:47;;;;;;;;;5.67;5.67;;;;;;;;4954173;28;45580;-63
2022/08/09 03:48:12;;;;;;;;;7.00;7.00;;;;;;;;4955004;28;46161;-63
2022/08/09 03:50:38;;;;;;;;;7.00;7.00;;;;;;;;4954068;28;45351;-63
2022/08/09 03:53:05;;;;;;;;;7.33;7.33;;;;;;;;4969223;28;45403;-63
2022/08/09 03:55:30;;;;;;;;;7.33;7.33;;;;;;;;4973556;28;45410;-63
2022/08/09 03:57:56;;;;;;;;;7.67;7.33;;;;;;;;4973190;28;45308;-63
2022/08/09 04:00:21;;;;;;;;;7.00;7.00;;;;;;;;4973461;28;45800;-63
2022/08/09 04:02:48;;;;;;;;;6.00;6.00;;;;;;;;4973383;28;45598;-63
2022/08/09 04:05:13;;;;;;;;;6.00;6.00;;;;;;;;4971808;28;45414;-63
2022/08/09 04:07:39;;;;;;;;;6.67;6.67;;;;;;;;4959526;28;46096;-63
2022/08/09 04:10:05;;;;;;;;;10.33;9.33;;;;;;;;4955211;28;45498;-63
2022/08/09 04:12:56;;;;;;;;;8.67;8.00;;;;;;;;4956704;28;45428;-64
2022/08/09 04:15:22;;;;;;;;;13.00;9.00;;;;;;;;4966225;28;45537;-63
2022/08/09 04:17:48;;;;;;;;;8.00;7.67;;;;;;;;4975824;28;45410;-63
2022/08/09 04:20:14;;;;;;;;;9.33;8.33;;;;;;;;4975904;28;45540;-64
2022/08/09 04:22:39;;;;;;;;;9.33;8.00;;;;;;;;4976200;28;45414;-63
2022/08/09 04:25:05;;;;;;;;;7.33;7.33;;;;;;;;4975977;28;45571;-63
2022/08/09 04:27:30;;;;;;;;;8.00;8.00;;;;;;;;4975312;28;46484;-63
2022/08/09 04:29:56;;;;;;;;;10.33;10.00;;;;;;;;4971149;28;45590;-63
2022/08/09 04:32:21;;;;;;;;;8.67;8.00;;;;;;;;4956312;28;45502;-63
2022/08/09 04:34:47;;;;;;;;;7.00;7.00;;;;;;;;4956250;28;45576;-63
2022/08/09 04:37:12;;;;;;;;;8.00;8.00;;;;;;;;4955862;28;45920;-63
2022/08/09 04:39:37;;;;;;;;;8.33;8.00;;;;;;;;4955942;28;45398;-63
2022/08/09 04:42:02;;;;;;;;;6.00;6.00;;;;;;;;4963594;28;45461;-63
2022/08/09 04:44:28;;;;;;;;;5.33;5.33;;;;;;;;4975473;28;45609;-63
2022/08/09 04:46:53;;;;;;;;;7.33;6.00;;;;;;;;4975128;28;46508;-63
2022/08/09 04:49:19;;;;;;;;;9.33;9.33;;;;;;;;4973445;28;45990;-63
2022/08/09 04:51:44;;;;;;;;;9.33;8.33;;;;;;;;4975416;28;45866;-63
2022/08/09 04:54:09;;;;;;;;;6.67;6.67;;;;;;;;4973541;28;45346;-63
2022/08/09 04:56:34;;;;;;;;;7.00;7.00;;;;;;;;4975176;28;45522;-63
2022/08/09 04:58:59;;;;;;;;;8.75;8.75;;;;;;;;4973991;28;45573;-63
2022/08/09 05:01:25;;;;;;;;;8.33;8.33;;;;;;;;4975461;28;45452;-62
2022/08/09 05:03:50;;;;;;;;;8.00;8.00;;;;;;;;4973343;28;45522;-62
2022/08/09 05:06:15;;;;;;;;;10.33;10.33;;;;;;;;4955644;28;45390;-62
2022/08/09 05:08:40;;;;;;;;;7.33;7.33;;;;;;;;4956125;28;45502;-63
2022/08/09 05:11:06;;;;;;;;;8.33;6.67;;;;;;;;4955988;28;45491;-62
2022/08/09 05:13:31;;;;;;;;;9.67;6.33;;;;;;;;4955713;28;45352;-63
2022/08/09 05:15:56;;;;;;;;;7.67;7.67;;;;;;;;4956173;28;45835;-63
2022/08/09 05:18:21;;;;;;;;;8.00;8.00;;;;;;;;4966242;28;45437;-62
2022/08/09 05:20:47;;;;;;;;;10.33;9.33;;;;;;;;4973510;28;45341;-62
2022/08/09 05:23:12;;;;;;;;;8.67;6.67;;;;;;;;4963338;28;45369;-62
2022/08/09 05:25:37;;;;;;;;;7.00;7.00;;;;;;;;4954486;28;45400;-63
2022/08/09 05:28:03;;;;;;;;;7.67;7.67;;;;;;;;4956323;28;45395;-62
2022/08/09 05:30:28;;;;;;;;;9.67;9.67;;;;;;;;4966374;28;45468;-63
2022/08/09 05:32:54;;;;;;;;;8.00;8.00;;;;;;;;4955508;28;45586;-62
2022/08/09 05:35:19;;;;;;;;;7.33;7.33;;;;;;;;4966484;28;45996;-63
2022/08/09 05:37:45;;;;;;;;;7.67;7.67;;;;;;;;4974722;28;45447;-63
2022/08/09 05:40:11;;;;;;;;;7.00;7.00;;;;;;;;4974969;28;45422;-63
2022/08/09 05:42:36;;;;;;;;;11.00;10.00;;;;;;;;4974665;28;45389;-62
2022/08/09 05:45:02;;;;;;;;;7.00;7.00;;;;;;;;4974499;28;45509;-62
2022/08/09 05:47:28;;;;;;;;;6.67;6.67;;;;;;;;4974859;28;45385;-63
2022/08/09 05:49:54;;;;;;;;;10.67;8.00;;;;;;;;4974539;28;45487;-63
2022/08/09 05:52:20;;;;;;;;;6.67;6.67;;;;;;;;4960202;28;45550;-64
2022/08/09 05:54:45;;;;;;;;;12.00;12.00;;;;;;;;4956872;28;46041;-64
2022/08/09 05:57:10;;;;;;;;;9.00;9.00;;;;;;;;4972374;28;45521;-64
2022/08/09 05:59:36;;;;;;;;;8.00;6.67;;;;;;;;4974692;28;45441;-64
2022/08/09 06:02:01;;;;;;;;;7.33;7.33;;;;;;;;4974802;28;45626;-64
2022/08/09 06:04:26;;;;;;;;;6.00;6.00;;;;;;;;4962834;28;45552;-63
2022/08/09 06:06:52;;;;;;;;;7.00;7.00;;;;;;;;4955904;28;45359;-63
2022/08/09 06:09:18;;;;;;;;;8.33;8.33;;;;;;;;4955354;28;45445;-64
2022/08/09 06:11:43;;;;;;;;;9.00;9.00;;;;;;;;4955778;28;45368;-64
2022/08/09 06:14:08;;;;;;;;;10.67;8.67;;;;;;;;4971418;28;45412;-62
2022/08/09 06:16:33;;;;;;;;;9.67;9.00;;;;;;;;4971243;28;45461;-63
2022/08/09 06:18:59;;;;;;;;;9.00;9.00;;;;;;;;4974672;28;45524;-63
2022/08/09 06:21:24;;;;;;;;;10.33;9.33;;;;;;;;4974346;28;45430;-63
2022/08/09 06:23:51;;;;;;;;;11.00;9.00;;;;;;;;4974026;28;46250;-63
2022/08/09 06:26:18;;;;;;;;;10.67;9.33;;;;;;;;4973902;28;45426;-63
2022/08/09 06:28:44;;;;;;;;;8.00;8.00;;;;;;;;4974067;28;45404;-63
2022/08/09 06:31:09;;;;;;;;;8.67;7.33;;;;;;;;4972745;28;45350;-63
2022/08/09 06:33:34;;;;;;;;;8.00;7.00;;;;;;;;4973757;28;45398;-63
2022/08/09 06:35:59;;;;;;;;;6.00;6.00;;;;;;;;4973864;28;45378;-63
2022/08/09 06:38:25;;;;;;;;;9.00;8.00;;;;;;;;4974074;28;45394;-63
2022/08/09 06:40:50;;;;;;;;;9.00;8.00;;;;;;;;4973878;28;45346;-64
2022/08/09 06:43:15;;;;;;;;;10.33;10.33;;;;;;;;4973697;28;45418;-63
2022/08/09 06:45:40;;;;;;;;;9.00;9.00;;;;;;;;4973874;28;45464;-63
2022/08/09 06:48:06;;;;;;;;;8.00;8.00;;;;;;;;4972605;28;45467;-63
2022/08/09 06:50:31;;;;;;;;;10.00;10.00;;;;;;;;4973447;28;45655;-63
2022/08/09 06:52:57;;;;;;;;;9.33;8.67;;;;;;;;4973524;28;45315;-63
2022/08/09 06:55:25;;;;;;;;;10.00;9.00;;;;;;;;4973690;28;45409;-63
2022/08/09 06:57:50;;;;;;;;;7.33;7.33;;;;;;;;4973667;28;45498;-63
2022/08/09 07:00:15;;;;;;;;;9.00;9.00;;;;;;;;4973620;28;45505;-63
2022/08/09 07:02:41;;;;;;;;;10.67;10.00;;;;;;;;4973367;28;45457;-63
2022/08/09 07:05:06;;;;;;;;;9.33;9.33;;;;;;;;4973507;28;45464;-63
2022/08/09 07:07:31;;;;;;;;;9.00;9.00;;;;;;;;4973323;28;45461;-64
2022/08/09 07:09:57;;;;;;;;;9.00;9.00;;;;;;;;4973534;28;45427;-63
2022/08/09 07:12:23;;;;;;;;;12.00;11.00;;;;;;;;4973293;28;46091;-63
2022/08/09 07:14:48;;;;;;;;;9.67;9.67;;;;;;;;4974066;28;45491;-63
2022/08/09 07:17:13;;;;;;;;;9.00;9.00;;;;;;;;4973054;28;45382;-63
2022/08/09 07:19:39;;;;;;;;;10.00;10.00;;;;;;;;4973228;28;45613;-63
2022/08/09 07:22:04;;;;;;;;;9.00;8.25;;;;;;;;4972964;28;46201;-63
2022/08/09 07:24:30;;;;;;;;;11.00;11.00;;;;;;;;4973184;28;45400;-63
2022/08/09 07:26:55;;;;;;;;;8.00;8.00;;;;;;;;4973249;28;45445;-63
2022/08/09 07:29:21;;;;;;;;;12.67;11.00;;;;;;;;4973367;28;45545;-63
2022/08/09 07:31:46;;;;;;;;;9.00;8.00;;;;;;;;4972805;28;45410;-63
2022/08/09 07:34:11;;;;;;;;;7.33;7.33;;;;;;;;4972789;28;45524;-63
2022/08/09 07:36:36;;;;;;;;;10.00;8.67;;;;;;;;4972874;28;45425;-63
2022/08/09 07:39:02;;;;;;;;;11.00;9.67;;;;;;;;4972916;28;45367;-63
2022/08/09 07:41:27;;;;;;;;;8.25;8.25;;;;;;;;4973643;28;46023;-63
2022/08/09 07:43:53;;;;;;;;;10.75;10.75;;;;;;;;4976227;28;45440;-64
2022/08/09 07:46:18;;;;;;;;;9.00;9.00;;;;;;;;4976099;28;45358;-64
2022/08/09 07:48:43;;;;;;;;;9.00;7.75;;;;;;;;4975811;28;45700;-64
2022/08/09 07:51:08;;;;;;;;;9.00;9.00;;;;;;;;4975817;28;46290;-63
2022/08/09 07:53:34;;;;;;;;;10.25;9.75;;;;;;;;4975875;28;45457;-63
2022/08/09 07:55:59;;;;;;;;;8.75;8.75;;;;;;;;4976060;28;45509;-63
2022/08/09 07:58:24;;;;;;;;;10.00;10.00;;;;;;;;4975915;28;45432;-64
2022/08/09 08:00:50;;;;;;;;;9.00;9.00;;;;;;;;4975796;28;45599;-63
2022/08/09 08:03:15;;;;;;;;;10.25;8.00;;;;;;;;4975860;28;45415;-63
2022/08/09 08:05:41;;;;;;;;;7.00;6.75;;;;;;;;4975952;28;45440;-63
2022/08/09 08:08:07;;;;;;;;;10.25;9.25;;;;;;;;4975670;28;45506;-64
2022/08/09 08:10:32;;;;;;;;;7.25;7.25;;;;;;;;4975744;28;45385;-63
2022/08/09 08:12:57;;;;;;;;;13.67;13.33;;;;;;;;4975673;28;45521;-63
2022/08/09 08:15:22;;;;;;;;;9.33;9.33;;;;;;;;4974812;28;45348;-63
2022/08/09 08:17:52;;;;;;;;;9.50;9.50;;;;;;;;4975508;28;45421;-63
2022/08/09 08:20:20;;;;;;;;;8.00;8.00;;;;;;;;4974241;28;45430;-63
2022/08/09 08:22:46;;;;;;;;;11.25;10.50;;;;;;;;4975729;28;45370;-63
2022/08/09 08:25:12;;;;;;;;;11.50;9.75;;;;;;;;4975444;28;45360;-63
2022/08/09 08:27:37;;;;;;;;;12.33;11.33;;;;;;;;4975277;28;45709;-63
2022/08/09 08:30:03;;;;;;;;;9.25;9.25;;;;;;;;4975341;28;46186;-63
2022/08/09 08:32:29;;;;;;;;;9.00;9.00;;;;;;;;4975245;28;45449;-64
2022/08/09 08:34:56;;;;;;;;;16.67;16.67;;;;;;;;4975515;28;45388;-63
2022/08/09 08:37:21;;;;;;;;;10.00;10.00;;;;;;;;4975481;28;45481;-63
2022/08/09 08:39:46;;;;;;;;;8.00;8.00;;;;;;;;4975282;28;45422;-63
2022/08/09 08:42:11;;;;;;;;;9.25;9.00;;;;;;;;4975137;28;45600;-63
2022/08/09 08:44:37;;;;;;;;;9.25;8.75;;;;;;;;4975351;28;45376;-63
2022/08/09 08:47:02;;;;;;;;;8.75;8.75;;;;;;;;4975086;28;45586;-63
2022/08/09 08:49:29;;;;;;;;;9.00;7.75;;;;;;;;4974953;28;45906;-63
2022/08/09 08:51:55;;;;;;;;;6.50;6.50;;;;;;;;4974999;28;45435;-63
2022/08/09 08:54:20;;;;;;;;;8.25;8.25;;;;;;;;4974322;28;45492;-64
2022/08/09 08:56:45;;;;;;;;;9.00;9.00;;;;;;;;4975117;28;45479;-63
2022/08/09 08:59:11;;;;;;;;;8.50;8.50;;;;;;;;4975096;28;46162;-63
2022/08/09 09:01:39;;;;;;;;;9.25;9.25;;;;;;;;4974964;28;45481;-64
2022/08/09 09:04:08;;;;;;;;;7.75;7.75;;;;;;;;4975058;28;45335;-63
2022/08/09 09:06:34;;;;;;;;;7.50;7.50;;;;;;;;4975012;28;45340;-64
2022/08/09 09:09:01;;;;;;;;;7.00;7.00;;;;;;;;4974747;28;45413;-63
2022/08/09 09:11:27;;;;;;;;;6.00;6.00;;;;;;;;4974927;28;45389;-64
2022/08/09 09:13:54;;;;;;;;;7.50;7.50;;;;;;;;4974950;28;45512;-64
2022/08/09 09:16:19;;;;;;;;;9.50;8.75;;;;;;;;4975236;28;45374;-64
2022/08/09 09:18:44;;;;;;;;;7.75;7.00;;;;;;;;4974413;28;46574;-64
2022/08/09 09:21:10;;;;;;;;;8.75;7.25;;;;;;;;4974975;27;45405;-63
2022/08/09 09:23:39;;;;;;;;;9.00;7.50;;;;;;;;4974912;28;45427;-64
2022/08/09 09:26:04;;;;;;;;;11.25;9.00;;;;;;;;4974819;28;45534;-64
2022/08/09 09:28:33;;;;;;;;;10.00;10.00;;;;;;;;4974473;28;45473;-64
2022/08/09 09:31:00;;;;;;;;;11.00;11.00;;;;;;;;4974684;28;45429;-63
2022/08/09 09:33:34;;;;;;;;;7.75;7.75;;;;;;;;4974934;28;45364;-63
2022/08/09 09:36:02;;;;;;;;;8.00;6.00;;;;;;;;4974859;28;45614;-63
2022/08/09 09:38:39;;;;;;;;;6.00;6.00;;;;;;;;4974569;28;45452;-64
2022/08/09 09:41:05;;;;;;;;;9.25;8.00;;;;;;;;4974571;28;45457;-63
2022/08/09 09:43:30;;;;;;;;;9.00;8.25;;;;;;;;4974534;28;45421;-63
2022/08/09 09:45:56;;;;;;;;;7.50;7.00;;;;;;;;4974506;28;45574;-64
2022/08/09 09:48:22;;;;;;;;;8.00;8.00;;;;;;;;4974259;28;46413;-63
2022/08/09 09:50:48;;;;;;;;;8.50;8.50;;;;;;;;4974342;28;45401;-63
2022/08/09 09:53:15;;;;;;;;;7.00;7.00;;;;;;;;4974689;28;45383;-63
2022/08/09 09:55:50;;;;;;;;;9.00;7.00;;;;;;;;4974455;28;45477;-63
2022/08/09 09:58:15;;;;;;;;;23.00;18.67;;;;;;;;4974168;28;46328;-63
2022/08/09 10:00:50;;;;;;;;;8.50;8.50;;;;;;;;4974402;28;45328;-63
2022/08/09 10:03:16;;;;;;;;;8.25;8.25;;;;;;;;4974400;28;45445;-63
2022/08/09 10:05:55;;;;;;;;;9.00;9.00;;;;;;;;4974070;28;45414;-63
2022/08/09 10:08:21;;;;;;;;;7.50;7.50;;;;;;;;4974047;28;46006;-63
2022/08/09 10:10:47;;;;;;;;;7.00;7.00;;;;;;;;4973898;28;45531;-63
2022/08/09 10:13:12;;;;;;;;;9.75;9.75;;;;;;;;4974173;28;45359;-63
2022/08/09 10:15:46;;;;;;;;;10.25;8.00;;;;;;;;4974391;28;45417;-63
2022/08/09 10:18:11;;;;;;;;;8.50;7.50;;;;;;;;4973733;28;45460;-63
2022/08/09 10:20:36;;;;;;;;;7.25;7.25;;;;;;;;4973822;28;45524;-63
2022/08/09 10:23:22;;;;;;;;;7.25;7.25;;;;;;;;4973914;28;45386;-63
2022/08/09 10:25:48;;;;;;;;;8.75;8.75;;;;;;;;4973912;27;45560;-63
2022/08/09 10:28:13;;;;;;;;;8.25;8.25;;;;;;;;4972983;28;46146;-63
2022/08/09 10:30:39;;;;;;;;;9.00;9.00;;;;;;;;4973532;28;45438;-63
2022/08/09 10:33:04;;;;;;;;;7.50;6.75;;;;;;;;4973891;28;45465;-63
2022/08/09 10:35:30;;;;;;;;;9.00;8.00;;;;;;;;4973414;28;45648;-64
2022/08/09 10:37:57;;;;;;;;;0.50;0.50;;;;;;;;4973394;28;46119;-63
2022/08/09 10:40:23;;;;;;;;;8.50;8.50;;;;;;;;4973189;28;45375;-63
2022/08/09 10:42:48;;;;;;;;;8.25;8.25;;;;;;;;4973182;28;45386;-63
2022/08/09 10:45:13;;;;;;;;;9.25;9.25;;;;;;;;4973510;28;45358;-63
2022/08/09 10:47:59;;;;;;;;;11.00;11.00;;;;;;;;4972871;28;45397;-63
2022/08/09 10:51:05;;;;;;;;;10.00;10.00;;;;;;;;4973045;28;45623;-63
2022/08/09 10:53:16;;;;;;;;;7.25;7.25;;;;;;;;4973137;28;45357;-63
2022/08/09 10:55:42;;;;;;;;;9.50;9.50;;;;;;;;4973369;28;45421;-63
2022/08/09 10:58:07;;;;;;;;;7.00;7.00;;;;;;;;4973194;28;45385;-63
2022/08/09 11:00:42;;;;;;;;;8.25;8.25;;;;;;;;4973353;28;45481;-62
2022/08/09 11:03:23;;;;;;;;;9.00;9.00;;;;;;;;4973042;28;45388;-63
2022/08/09 11:06:07;;;;;;;;;11.25;11.00;;;;;;;;4973066;28;45426;-65
2022/08/09 11:08:42;;;;;;;;;8.75;7.00;;;;;;;;4972691;28;46225;-64
2022/08/09 11:11:07;;;;;;;;;11.75;11.75;;;;;;;;4972971;28;45543;-63
2022/08/09 11:13:33;;;;;;;;;8.00;8.00;;;;;;;;4969232;28;45570;-62
2022/08/09 11:16:16;;;;;;;;;10.00;10.00;;;;;;;;4960548;28;45604;-64
2022/08/09 11:18:44;;;;;;;;;11.00;9.50;;;;;;;;4959059;28;46098;-64
2022/08/09 11:21:29;;;;;;;;;9.00;9.00;;;;;;;;4956524;28;45623;-63
2022/08/09 11:23:58;;;;;;;;;10.75;10.75;;;;;;;;4951895;28;45481;-64
2022/08/09 11:26:39;;;;;;;;;31.33;30.00;;;;;;;;4954541;28;45412;-65
2022/08/09 11:29:04;;;;;;;;;16.50;16.50;;;;;;;;4953077;28;46315;-65
2022/08/09 11:31:40;;;;;;;;;9.75;9.75;;;;;;;;4953187;28;45437;-65
2022/08/09 11:34:09;;;;;;;;;39.00;34.67;;;;;;;;4965376;28;45481;-63
2022/08/09 11:36:41;;;;;;;;;10.00;10.00;;;;;;;;4956536;28;45450;-63
2022/08/09 11:39:06;;;;;;;;;12.25;10.00;;;;;;;;4953602;28;46286;-63
2022/08/09 11:41:32;;;;;;;;;11.00;11.00;;;;;;;;4953471;28;45384;-63
2022/08/09 11:43:57;;;;;;;;;11.00;11.00;;;;;;;;4953718;28;45525;-65
2022/08/09 11:46:22;;;;;;;;;10.25;9.00;;;;;;;;4954001;28;45304;-65
2022/08/09 11:48:50;;;;;;;;;12.00;10.25;;;;;;;;4953663;28;45455;-64
2022/08/09 11:51:16;;;;;;;;;9.50;9.50;;;;;;;;4953676;28;45386;-65
2022/08/09 11:53:41;;;;;;;;;7.25;7.25;;;;;;;;4954587;28;45459;-64
2022/08/09 11:56:12;;;;;;;;;12.50;12.00;;;;;;;;4954594;28;45544;-64
2022/08/09 11:58:42;;;;;;;;;15.50;13.75;;;;;;;;4964160;28;45529;-63
2022/08/09 12:01:08;;;;;;;;;7.00;7.00;;;;;;;;4952199;28;45540;-63
2022/08/09 12:03:34;;;;;;;;;10.00;8.50;;;;;;;;4966085;28;45543;-63
2022/08/09 12:06:00;;;;;;;;;7.00;7.00;;;;;;;;4972711;28;45461;-64
2022/08/09 12:08:26;;;;;;;;;17.00;17.00;;;;;;;;4972882;28;46295;-64
2022/08/09 12:10:53;;;;;;;;;11.00;11.00;;;;;;;;4973109;28;45435;-63
2022/08/09 12:13:38;;;;;;;;;10.50;10.50;;;;;;;;4972667;28;45414;-64
2022/08/09 12:16:08;;;;;;;;;6.50;6.50;;;;;;;;4967954;28;45698;-64
2022/08/09 12:18:34;;;;;;;;;7.00;7.00;;;;;;;;4952465;28;46009;-64
2022/08/09 12:21:01;;;;;;;;;6.50;6.50;;;;;;;;4952945;28;45473;-64
2022/08/09 12:23:26;;;;;;;;;12.25;12.25;;;;;;;;4952997;28;45354;-64
2022/08/09 12:25:52;;;;;;;;;10.50;8.00;;;;;;;;4952641;28;45396;-64
2022/08/09 12:28:18;;;;;;;;;8.00;8.00;;;;;;;;4952955;28;47238;-64
2022/08/09 12:30:44;;;;;;;;;6.20;6.20;;;;;;;;4955811;28;45474;-64
2022/08/09 12:33:10;;;;;;;;;8.75;8.75;;;;;;;;4955812;28;45361;-63
2022/08/09 12:35:36;;;;;;;;;7.25;7.25;;;;;;;;4955721;28;45624;-65
2022/08/09 12:38:20;;;;;;;;;13.50;10.25;;;;;;;;4955766;28;45474;-64
2022/08/09 12:40:46;;;;;;;;;6.00;5.80;;;;;;;;4955728;28;45501;-64
2022/08/09 12:43:12;;;;;;;;;8.50;8.00;;;;;;;;4956117;28;45565;-64
2022/08/09 12:45:38;;;;;;;;;6.75;6.75;;;;;;;;4955858;28;45515;-64
2022/08/09 12:48:03;;;;;;;;;8.25;8.25;;;;;;;;4955654;28;46194;-64
2022/08/09 12:50:29;;;;;;;;;8.50;7.75;;;;;;;;4955661;28;45698;-64
2022/08/09 12:52:54;;;;;;;;;8.25;7.75;;;;;;;;4955688;28;45442;-64
2022/08/09 12:55:24;;;;;;;;;8.00;8.00;;;;;;;;4956394;28;45475;-64
2022/08/09 12:57:49;;;;;;;;;8.00;8.00;;;;;;;;4955458;28;45362;-64
2022/08/09 13:00:16;;;;;;;;;9.75;9.75;;;;;;;;4955735;28;45339;-64
2022/08/09 13:02:49;;;;;;;;;9.60;7.80;;;;;;;;4955690;28;45433;-64
2022/08/09 13:05:17;;;;;;;;;7.25;7.25;;;;;;;;4955643;28;45577;-64
2022/08/09 13:07:42;;;;;;;;;8.00;8.00;;;;;;;;4955360;28;46931;-63
2022/08/09 13:10:07;;;;;;;;;8.50;8.50;;;;;;;;4955532;28;45416;-64
2022/08/09 13:12:32;;;;;;;;;9.00;9.00;;;;;;;;4955737;28;45407;-64
2022/08/09 13:15:03;;;;;;;;;8.50;8.00;;;;;;;;4955452;28;45422;-64
2022/08/09 13:17:29;;;;;;;;;8.00;8.00;;;;;;;;4955918;28;45986;-64
2022/08/09 13:19:56;;;;;;;;;8.00;8.00;;;;;;;;4955495;28;45299;-64
2022/08/09 13:22:22;;;;;;;;;7.20;7.00;;;;;;;;4955446;28;45403;-64
2022/08/09 13:24:54;;;;;;;;;9.00;9.00;;;;;;;;4955552;28;45422;-64
2022/08/09 13:27:25;;;;;;;;;7.60;7.60;;;;;;;;4955448;28;45429;-65
2022/08/09 13:29:55;;;;;;;;;7.00;7.00;;;;;;;;4955320;28;45458;-65
2022/08/09 13:32:20;;;;;;;;;6.20;6.20;;;;;;;;4955412;28;45462;-65
2022/08/09 13:34:46;;;;;;;;;9.25;9.25;;;;;;;;4955368;28;45696;-65
2022/08/09 13:37:11;;;;;;;;;8.50;8.50;;;;;;;;4955100;28;45902;-65
2022/08/09 13:39:37;;;;;;;;;9.00;8.00;;;;;;;;4954708;28;45405;-65
2022/08/09 13:42:04;;;;;;;;;8.00;8.00;;;;;;;;4955222;28;45486;-64
2022/08/09 13:44:30;;;;;;;;;8.20;8.20;;;;;;;;4954070;27;45553;-65
2022/08/09 13:46:55;;;;;;;;;7.75;7.50;;;;;;;;4954992;28;45462;-65
2022/08/09 13:49:20;;;;;;;;;11.25;11.25;;;;;;;;4955113;28;45489;-65
2022/08/09 13:51:46;;;;;;;;;9.00;7.50;;;;;;;;4955124;28;45501;-64
2022/08/09 13:54:11;;;;;;;;;8.00;8.00;;;;;;;;4954946;28;45625;-65
2022/08/09 13:56:37;;;;;;;;;6.25;6.25;;;;;;;;4954912;28;45552;-64
2022/08/09 13:59:02;;;;;;;;;6.75;6.75;;;;;;;;4954941;28;45606;-64
2022/08/09 14:01:27;;;;;;;;;6.25;6.25;;;;;;;;4955011;28;45439;-65
2022/08/09 14:03:52;;;;;;;;;6.25;6.25;;;;;;;;4953616;28;45563;-65
2022/08/09 14:06:18;;;;;;;;;1.00;1.00;;;;;;;;4954667;28;45453;-65
2022/08/09 14:08:44;;;;;;;;;7.00;7.00;;;;;;;;4954682;28;45409;-65
2022/08/09 14:11:09;;;;;;;;;7.50;7.00;;;;;;;;4954980;28;45474;-65
2022/08/09 14:13:35;;;;;;;;;7.50;7.50;;;;;;;;4954903;28;45613;-65
2022/08/09 14:16:00;;;;;;;;;9.00;9.00;;;;;;;;4955352;28;46211;-65
2022/08/09 14:18:26;;;;;;;;;9.75;9.75;;;;;;;;4954445;28;45519;-64
2022/08/09 14:20:51;;;;;;;;;8.25;8.25;;;;;;;;4955015;28;45438;-65
2022/08/09 14:23:16;;;;;;;;;8.00;8.00;;;;;;;;4955005;28;45498;-65
2022/08/09 14:25:42;;;;;;;;;6.00;6.00;;;;;;;;4954675;28;46304;-65
2022/08/09 14:28:07;;;;;;;;;7.50;7.50;;;;;;;;4954559;28;45348;-65
2022/08/09 14:30:32;;;;;;;;;6.50;6.50;;;;;;;;4954750;28;45476;-65
2022/08/09 14:32:57;;;;;;;;;7.50;7.50;;;;;;;;4954669;28;45494;-65
2022/08/09 14:35:23;;;;;;;;;6.25;6.25;;;;;;;;4954589;28;45438;-65
2022/08/09 14:37:48;;;;;;;;;7.25;7.25;;;;;;;;4954623;28;45405;-64